Time;durP1;ratioP1;P1;durP2;ratioP2;P2;SDS_P1;SDS_P2;PMS_P1;PMS_P2;Temp;Humidity;BMP_temperature;BMP_pressure;BME280_temperature;BME280_humidity;BME280_pressure;Samples;Min_cycle;Max_cycle;Signal;HPM_P1;HPM_P2
2021/11/23 00:02:03;;;;;;;5.70;2.60;;;1.00;99.90;;;;;;5230473;28;20260;-71
2021/11/23 00:04:44;;;;;;;4.47;2.30;;;1.10;99.90;;;;;;5243378;28;20328;-70
2021/11/23 00:07:16;;;;;;;4.13;2.60;;;1.10;99.90;;;;;;5229901;28;20240;-70
2021/11/23 00:09:49;;;;;;;5.77;2.37;;;1.10;99.90;;;;;;5229864;28;20206;-71
2021/11/23 00:12:21;;;;;;;6.80;2.80;;;1.20;99.90;;;;;;5228742;28;20225;-71
2021/11/23 00:14:53;;;;;;;3.77;1.90;;;1.20;99.90;;;;;;5229440;28;20212;-74
2021/11/23 00:17:27;;;;;;;4.87;2.00;;;1.20;99.90;;;;;;5244669;28;20233;-72
2021/11/23 00:20:03;;;;;;;4.00;2.50;;;1.30;99.90;;;;;;5228623;28;20204;-69
2021/11/23 00:22:36;;;;;;;4.93;2.30;;;1.30;99.90;;;;;;5229515;28;20561;-72
2021/11/23 00:25:12;;;;;;;4.83;1.90;;;1.40;99.90;;;;;;5228184;28;20213;-71
2021/11/23 00:27:44;;;;;;;5.63;2.10;;;1.40;99.90;;;;;;5228190;28;20232;-73
2021/11/23 00:30:16;;;;;;;4.63;2.00;;;1.40;99.90;;;;;;5228753;28;20206;-73
2021/11/23 00:32:49;;;;;;;3.77;2.17;;;1.50;99.90;;;;;;5246784;28;20229;-71
2021/11/23 00:35:23;;;;;;;4.90;2.40;;;1.50;99.90;;;;;;5249617;28;20200;-72
2021/11/23 00:37:56;;;;;;;4.83;2.10;;;1.50;99.90;;;;;;5246368;28;20702;-73
2021/11/23 00:40:31;;;;;;;5.17;2.03;;;1.50;99.90;;;;;;5248871;28;20186;-71
2021/11/23 00:43:04;;;;;;;2.87;1.67;;;1.50;99.90;;;;;;5253709;28;20223;-70
2021/11/23 00:45:36;;;;;;;3.80;1.80;;;1.50;99.90;;;;;;5253108;28;20197;-74
2021/11/23 00:48:09;;;;;;;4.03;1.80;;;1.50;99.90;;;;;;5232925;28;20225;-71
2021/11/23 00:50:41;;;;;;;3.80;1.67;;;1.50;99.90;;;;;;5249690;28;20200;-72
2021/11/23 00:53:13;;;;;;;3.67;1.97;;;1.60;99.90;;;;;;5247900;28;20263;-69
2021/11/23 00:55:45;;;;;;;4.40;2.07;;;1.50;99.90;;;;;;5249301;28;20204;-70
2021/11/23 00:58:20;;;;;;;4.37;1.93;;;1.50;99.90;;;;;;5248232;28;20652;-73
2021/11/23 01:00:55;;;;;;;4.70;2.20;;;1.50;99.90;;;;;;5246848;28;20549;-72
2021/11/23 01:03:32;;;;;;;3.67;1.80;;;1.50;99.90;;;;;;5249091;28;20302;-75
2021/11/23 01:06:04;;;;;;;4.20;1.70;;;1.50;99.90;;;;;;5248290;28;20184;-73
2021/11/23 01:08:39;;;;;;;4.93;2.10;;;1.50;99.90;;;;;;5248685;28;20220;-76
2021/11/23 01:11:13;;;;;;;4.20;2.17;;;1.50;99.90;;;;;;5244360;28;20192;-73
2021/11/23 01:13:47;;;;;;;4.33;1.87;;;1.50;99.90;;;;;;5248366;28;20524;-72
2021/11/23 01:16:19;;;;;;;5.00;2.00;;;1.50;99.90;;;;;;5251188;28;20193;-73
2021/11/23 01:18:51;;;;;;;4.90;1.90;;;1.60;99.90;;;;;;5253744;28;20221;-74
2021/11/23 01:21:23;;;;;;;3.50;2.00;;;1.60;99.90;;;;;;5253833;28;20193;-73
2021/11/23 01:23:56;;;;;;;5.10;2.23;;;1.60;99.90;;;;;;5255497;28;20520;-70
2021/11/23 01:26:27;;;;;;;5.10;2.20;;;1.60;99.90;;;;;;5260526;28;20600;-72
2021/11/23 01:29:03;;;;;;;4.63;2.07;;;1.60;99.90;;;;;;5254683;28;20208;-76
2021/11/23 01:31:36;;;;;;;5.23;2.10;;;1.70;99.90;;;;;;5252514;28;20232;-73
2021/11/23 01:34:07;;;;;;;3.37;1.77;;;1.70;99.90;;;;;;5253844;28;20601;-73
2021/11/23 01:36:39;;;;;;;4.53;1.70;;;1.70;99.90;;;;;;5253124;28;20201;-73
2021/11/23 01:39:11;;;;;;;4.23;1.60;;;1.60;99.90;;;;;;5251954;28;20231;-72
2021/11/23 01:41:47;;;;;;;3.67;1.90;;;1.70;99.90;;;;;;5252883;28;20496;-71
2021/11/23 01:44:19;;;;;;;3.90;1.80;;;1.70;99.90;;;;;;5256933;28;20185;-73
2021/11/23 01:46:51;;;;;;;3.20;1.70;;;1.70;99.90;;;;;;5257289;28;20271;-71
2021/11/23 01:49:28;;;;;;;4.43;1.70;;;1.80;99.90;;;;;;5278222;28;20204;-72
2021/11/23 01:52:02;;;;;;;3.30;1.73;;;1.80;99.90;;;;;;5251750;28;20192;-73
2021/11/23 01:54:37;;;;;;;4.03;1.90;;;1.80;99.90;;;;;;5252843;28;20220;-73
2021/11/23 01:57:10;;;;;;;4.10;1.60;;;1.80;99.90;;;;;;5252532;28;20534;-72
2021/11/23 01:59:43;;;;;;;5.23;1.73;;;1.80;99.90;;;;;;5253109;28;20293;-75
2021/11/23 02:02:17;;;;;;;4.40;1.77;;;1.80;99.90;;;;;;5255177;28;20526;-74
2021/11/23 02:04:49;;;;;;;4.17;1.90;;;1.90;99.90;;;;;;5258238;28;20248;-73
2021/11/23 02:07:26;;;;;;;4.33;1.63;;;1.90;99.90;;;;;;5253781;28;20529;-71
2021/11/23 02:10:01;;;;;;;2.97;1.60;;;1.90;99.90;;;;;;5250889;28;20208;-72
2021/11/23 02:12:36;;;;;;;2.37;1.67;;;1.90;99.90;;;;;;5265424;28;20193;-71
2021/11/23 02:15:11;;;;;;;4.27;1.63;;;2.00;99.90;;;;;;5251577;28;20197;-75
2021/11/23 02:17:47;;;;;;;4.57;1.50;;;2.00;99.90;;;;;;5251649;28;20207;-74
2021/11/23 02:20:22;;;;;;;4.93;1.87;;;2.10;99.90;;;;;;5252222;28;20530;-73
2021/11/23 02:22:54;;;;;;;7.03;1.80;;;2.10;99.90;;;;;;5246734;28;20487;-74
2021/11/23 02:25:27;;;;;;;8.93;1.87;;;2.20;99.90;;;;;;5252006;28;20204;-72
2021/11/23 02:28:00;;;;;;;6.77;1.87;;;2.20;99.90;;;;;;5249948;28;20224;-73
2021/11/23 02:30:39;;;;;;;3.13;1.70;;;2.20;99.90;;;;;;5251310;28;20224;-72
2021/11/23 02:33:19;;;;;;;5.30;2.03;;;2.20;99.90;;;;;;5251948;28;20216;-71
2021/11/23 02:35:53;;;;;;;4.70;1.60;;;2.20;99.90;;;;;;5254684;28;20200;-73
2021/11/23 02:38:31;;;;;;;6.63;1.70;;;2.20;99.90;;;;;;5255499;28;20636;-71
2021/11/23 02:41:08;;;;;;;2.97;2.00;;;2.20;99.90;;;;;;5252843;28;20201;-72
2021/11/23 02:43:41;;;;;;;6.57;1.83;;;2.20;99.90;;;;;;5251802;28;20193;-73
2021/11/23 02:46:15;;;;;;;10.07;2.30;;;2.20;99.90;;;;;;5247930;28;20192;-72
2021/11/23 02:48:48;;;;;;;3.90;1.70;;;2.20;99.90;;;;;;5251527;28;20192;-70
2021/11/23 02:51:20;;;;;;;7.20;2.30;;;2.30;99.90;;;;;;5250653;28;20201;-71
2021/11/23 02:53:53;;;;;;;3.80;2.20;;;2.30;99.90;;;;;;5253184;28;20601;-73
2021/11/23 02:56:28;;;;;;;7.10;2.10;;;2.30;99.90;;;;;;5251146;28;20205;-74
2021/11/23 02:59:00;;;;;;;4.93;2.37;;;2.40;99.90;;;;;;5253972;28;20204;-69
2021/11/23 03:01:32;;;;;;;8.03;1.83;;;2.40;99.90;;;;;;5256174;28;20475;-71
2021/11/23 03:04:07;;;;;;;4.57;2.20;;;2.40;99.90;;;;;;5251231;28;20286;-72
2021/11/23 03:06:43;;;;;;;4.43;2.40;;;2.40;99.90;;;;;;5232080;28;20196;-74
2021/11/23 03:09:17;;;;;;;7.57;2.37;;;2.40;99.90;;;;;;5250425;28;20235;-72
2021/11/23 03:11:51;;;;;;;3.97;2.20;;;2.40;99.90;;;;;;5250554;28;20214;-74
2021/11/23 03:14:25;;;;;;;8.37;2.43;;;2.50;99.90;;;;;;5251437;28;20208;-73
2021/11/23 03:16:57;;;;;;;8.47;2.80;;;2.40;99.90;;;;;;5251576;28;20205;-72
2021/11/23 03:19:29;;;;;;;11.20;2.90;;;2.50;99.90;;;;;;5251551;28;20255;-74
2021/11/23 03:22:04;;;;;;;6.70;2.77;;;2.50;99.90;;;;;;5250421;28;20205;-73
2021/11/23 03:24:37;;;;;;;6.33;3.20;;;2.50;99.90;;;;;;5251510;28;20224;-75
2021/11/23 03:27:10;;;;;;;6.67;2.97;;;2.50;99.90;;;;;;5251034;28;20201;-75
2021/11/23 03:29:43;;;;;;;5.93;2.70;;;2.50;99.90;;;;;;5250915;28;20640;-71
2021/11/23 03:32:20;;;;;;;8.57;3.00;;;2.50;99.90;;;;;;5250930;28;20209;-71
2021/11/23 03:34:54;;;;;;;6.87;3.33;;;2.50;99.90;;;;;;5251735;28;20235;-71
2021/11/23 03:37:27;;;;;;;9.70;3.47;;;2.60;99.90;;;;;;5256609;28;20204;-75
2021/11/23 03:40:00;;;;;;;7.07;3.17;;;2.60;99.90;;;;;;5251495;28;20251;-74
2021/11/23 03:42:32;;;;;;;9.50;3.47;;;2.60;99.90;;;;;;5250589;28;20201;-71
2021/11/23 03:45:05;;;;;;;10.20;3.90;;;2.60;99.90;;;;;;5250866;28;20247;-71
2021/11/23 03:47:38;;;;;;;8.53;3.80;;;2.70;99.90;;;;;;5250397;28;20517;-73
2021/11/23 03:50:14;;;;;;;11.57;4.53;;;2.70;99.90;;;;;;5249668;28;20232;-71
2021/11/23 03:52:47;;;;;;;6.67;4.13;;;2.80;99.90;;;;;;5249530;28;20196;-73
2021/11/23 03:55:19;;;;;;;14.53;5.00;;;2.80;99.90;;;;;;5250230;28;20228;-71
2021/11/23 03:57:57;;;;;;;8.43;4.00;;;2.80;99.90;;;;;;5250633;28;20648;-72
2021/11/23 04:00:29;;;;;;;8.70;4.70;;;2.80;99.90;;;;;;5250840;28;20312;-71
2021/11/23 04:03:02;;;;;;;9.20;4.57;;;2.80;99.90;;;;;;5250419;28;20685;-73
2021/11/23 04:05:34;;;;;;;11.93;5.40;;;2.80;99.90;;;;;;5249711;28;20228;-70
2021/11/23 04:08:08;;;;;;;11.90;4.73;;;2.90;99.90;;;;;;5254905;28;20551;-71
2021/11/23 04:10:41;;;;;;;10.70;4.60;;;2.90;99.90;;;;;;5255045;28;20267;-72
2021/11/23 04:13:13;;;;;;;8.27;4.50;;;2.90;99.90;;;;;;5251257;28;20231;-73
2021/11/23 04:15:46;;;;;;;10.83;4.60;;;3.00;99.90;;;;;;5250441;28;20221;-72
2021/11/23 04:18:21;;;;;;;11.43;5.30;;;3.00;99.90;;;;;;5248977;28;20200;-71
2021/11/23 04:20:53;;;;;;;9.67;5.43;;;3.00;99.90;;;;;;5249967;28;20228;-74
2021/11/23 04:23:25;;;;;;;10.57;5.50;;;3.00;99.90;;;;;;5250030;28;20656;-73
2021/11/23 04:25:57;;;;;;;7.80;4.60;;;3.10;99.90;;;;;;5250629;28;20762;-73
2021/11/23 04:28:29;;;;;;;8.83;4.67;;;3.10;99.90;;;;;;5249448;28;20209;-72
2021/11/23 04:31:04;;;;;;;8.40;4.80;;;3.10;99.90;;;;;;5249515;28;20263;-73
2021/11/23 04:33:37;;;;;;;7.20;4.63;;;3.10;99.90;;;;;;5249938;28;20212;-74
2021/11/23 04:36:11;;;;;;;9.37;4.57;;;3.20;99.90;;;;;;5250290;28;20571;-72
2021/11/23 04:38:44;;;;;;;7.13;4.67;;;3.20;99.90;;;;;;5254120;28;20219;-72
2021/11/23 04:41:16;;;;;;;7.37;4.40;;;3.30;99.90;;;;;;5252048;28;20652;-72
2021/11/23 04:43:48;;;;;;;7.13;4.57;;;3.30;99.90;;;;;;5249950;28;20508;-72
2021/11/23 04:46:20;;;;;;;7.43;4.10;;;3.40;99.90;;;;;;5248625;28;20236;-73
2021/11/23 04:48:53;;;;;;;7.00;4.40;;;3.40;99.90;;;;;;5248912;28;20217;-74
2021/11/23 04:51:26;;;;;;;9.03;4.30;;;3.50;99.90;;;;;;5248508;28;20232;-72
2021/11/23 04:54:00;;;;;;;7.47;4.30;;;3.50;99.90;;;;;;5249872;28;20314;-75
2021/11/23 04:56:32;;;;;;;7.57;4.43;;;3.50;99.90;;;;;;5250001;28;20204;-75
2021/11/23 04:59:04;;;;;;;10.87;4.43;;;3.50;99.90;;;;;;5249745;28;20648;-72
2021/11/23 05:01:38;;;;;;;7.93;4.43;;;3.60;99.90;;;;;;5248792;28;20675;-72
2021/11/23 05:04:13;;;;;;;6.60;4.43;;;3.60;99.90;;;;;;5249452;28;20597;-71
2021/11/23 05:06:45;;;;;;;7.73;3.97;;;3.70;99.90;;;;;;5253547;28;20234;-73
2021/11/23 05:09:17;;;;;;;8.80;4.17;;;3.70;99.90;;;;;;5237028;28;20205;-73
2021/11/23 05:11:50;;;;;;;8.13;5.37;;;3.70;99.90;;;;;;5255877;28;20264;-73
2021/11/23 05:14:24;;;;;;;6.00;4.20;;;3.80;99.90;;;;;;5251486;28;20193;-73
2021/11/23 05:16:57;;;;;;;7.43;4.07;;;3.70;99.90;;;;;;5249437;28;20224;-70
2021/11/23 05:19:29;;;;;;;6.23;4.57;;;3.80;99.90;;;;;;5249229;28;20231;-71
2021/11/23 05:22:02;;;;;;;8.60;4.40;;;3.80;99.90;;;;;;5248754;28;20224;-71
2021/11/23 05:24:37;;;;;;;6.77;4.30;;;3.90;99.90;;;;;;5248553;28;20205;-72
2021/11/23 05:27:09;;;;;;;7.37;4.53;;;3.90;99.90;;;;;;5250085;28;20228;-72
2021/11/23 05:29:41;;;;;;;6.43;3.83;;;3.90;99.90;;;;;;5232638;28;20185;-74
2021/11/23 05:32:13;;;;;;;7.93;3.97;;;3.90;99.90;;;;;;5249748;28;20235;-74
2021/11/23 05:34:46;;;;;;;7.27;4.23;;;4.00;99.90;;;;;;5250288;28;20220;-74
2021/11/23 05:37:18;;;;;;;5.87;3.50;;;4.00;99.90;;;;;;5234995;28;20255;-75
2021/11/23 05:39:50;;;;;;;5.63;3.50;;;4.00;99.90;;;;;;5251852;28;20224;-75
2021/11/23 05:42:22;;;;;;;8.80;4.20;;;4.00;99.90;;;;;;5232205;28;20722;-72
2021/11/23 05:44:54;;;;;;;6.13;3.83;;;4.00;99.90;;;;;;5250147;28;20200;-74
2021/11/23 05:47:27;;;;;;;6.87;3.93;;;4.10;99.90;;;;;;5248976;28;20213;-77
2021/11/23 05:50:00;;;;;;;9.00;4.10;;;4.10;99.90;;;;;;5249040;28;20297;-76
2021/11/23 05:52:34;;;;;;;5.73;4.30;;;4.10;99.90;;;;;;5247837;28;20204;-78
2021/11/23 05:55:07;;;;;;;9.23;4.73;;;4.20;99.90;;;;;;5248557;28;20193;-76
2021/11/23 05:57:39;;;;;;;6.77;4.40;;;4.20;99.90;;;;;;5248047;28;20209;-79
2021/11/23 06:00:12;;;;;;;9.70;4.63;;;4.20;99.90;;;;;;5249048;28;20652;-78
2021/11/23 06:02:44;;;;;;;6.13;4.33;;;4.30;99.90;;;;;;5267178;28;20261;-77
2021/11/23 06:05:17;;;;;;;9.33;4.40;;;4.30;99.90;;;;;;5252129;28;20515;-68
2021/11/23 06:07:49;;;;;;;10.93;5.10;;;4.30;99.90;;;;;;5256094;28;20215;-70
2021/11/23 06:10:21;;;;;;;6.77;4.90;;;4.30;99.90;;;;;;5253773;28;20312;-71
2021/11/23 06:12:53;;;;;;;9.17;4.80;;;4.30;99.90;;;;;;5251930;28;20201;-70
2021/11/23 06:15:28;;;;;;;9.27;4.97;;;4.40;99.90;;;;;;5251694;28;20220;-71
2021/11/23 06:18:02;;;;;;;7.80;5.20;;;4.40;99.90;;;;;;5252023;28;20219;-68
2021/11/23 06:20:34;;;;;;;10.97;5.40;;;4.40;99.90;;;;;;5252557;28;20235;-71
2021/11/23 06:23:06;;;;;;;9.70;5.57;;;4.40;99.90;;;;;;5234099;28;20197;-69
2021/11/23 06:25:41;;;;;;;9.77;5.27;;;4.50;99.90;;;;;;5249064;28;20224;-68
2021/11/23 06:28:14;;;;;;;11.37;5.70;;;4.50;99.90;;;;;;5251875;28;20523;-72
2021/11/23 06:30:49;;;;;;;9.57;5.53;;;4.50;99.90;;;;;;5251434;28;20489;-72
2021/11/23 06:33:24;;;;;;;8.40;5.00;;;4.50;99.90;;;;;;5250947;28;20558;-71
2021/11/23 06:35:56;;;;;;;8.10;5.27;;;4.50;99.90;;;;;;5252132;28;20207;-75
2021/11/23 06:38:28;;;;;;;8.83;5.73;;;4.50;99.90;;;;;;5252745;28;20608;-76
2021/11/23 06:41:00;;;;;;;8.70;6.23;;;4.50;99.90;;;;;;5256515;28;20243;-71
2021/11/23 06:43:32;;;;;;;9.70;5.77;;;4.60;99.90;;;;;;5252736;28;20193;-70
2021/11/23 06:46:07;;;;;;;10.73;5.80;;;4.60;99.90;;;;;;5251760;28;20197;-73
2021/11/23 06:48:39;;;;;;;8.73;6.10;;;4.60;99.90;;;;;;5250854;28;20215;-72
2021/11/23 06:51:13;;;;;;;12.40;6.53;;;4.60;99.90;;;;;;5251902;28;20197;-72
2021/11/23 06:53:45;;;;;;;12.57;6.60;;;4.70;99.90;;;;;;5250813;28;20200;-72
2021/11/23 06:56:17;;;;;;;11.43;6.50;;;4.70;99.90;;;;;;5234183;28;20212;-72
2021/11/23 06:58:49;;;;;;;9.37;6.00;;;4.80;99.90;;;;;;5251626;28;20213;-70
2021/11/23 07:01:23;;;;;;;11.67;6.50;;;4.80;99.90;;;;;;5234484;28;20239;-72
2021/11/23 07:03:57;;;;;;;13.23;7.13;;;4.80;99.90;;;;;;5252658;28;20535;-73
2021/11/23 07:06:29;;;;;;;15.63;7.60;;;4.70;99.90;;;;;;5252122;28;20680;-70
2021/11/23 07:09:00;;;;;;;15.60;8.17;;;4.70;99.90;;;;;;5251470;28;20235;-68
2021/11/23 07:11:32;;;;;;;15.00;7.90;;;4.70;99.90;;;;;;5254730;28;20224;-71
2021/11/23 07:14:06;;;;;;;15.83;7.50;;;4.70;99.90;;;;;;5254716;28;20223;-72
2021/11/23 07:16:39;;;;;;;13.53;7.53;;;4.70;99.90;;;;;;5252714;28;20233;-70
2021/11/23 07:19:12;;;;;;;15.17;8.30;;;4.70;99.90;;;;;;5233797;28;20225;-71
2021/11/23 07:21:44;;;;;;;14.43;7.73;;;4.70;99.90;;;;;;5251043;28;20236;-70
2021/11/23 07:24:17;;;;;;;12.30;7.93;;;4.80;99.90;;;;;;5250309;28;20197;-69
2021/11/23 07:26:49;;;;;;;14.73;7.87;;;4.80;99.90;;;;;;5250307;28;20570;-71
2021/11/23 07:29:21;;;;;;;17.17;8.30;;;4.90;99.90;;;;;;5251232;28;20219;-72
2021/11/23 07:31:53;;;;;;;15.80;7.63;;;4.90;99.90;;;;;;5250651;28;20229;-71
2021/11/23 07:34:25;;;;;;;16.13;8.10;;;5.00;99.90;;;;;;5251018;28;20200;-74
2021/11/23 07:36:57;;;;;;;16.20;8.60;;;5.10;99.90;;;;;;5250520;28;20236;-72
2021/11/23 07:39:29;;;;;;;18.27;9.57;;;5.20;99.90;;;;;;5233455;28;20221;-73
2021/11/23 07:42:05;;;;;;;25.37;10.77;;;5.30;99.90;;;;;;5252124;28;20228;-71
2021/11/23 07:44:42;;;;;;;21.47;9.47;;;5.30;99.90;;;;;;5254698;28;20514;-70
2021/11/23 07:47:15;;;;;;;13.70;6.30;;;5.40;99.90;;;;;;5251322;28;20224;-72
2021/11/23 07:49:46;;;;;;;12.37;6.27;;;5.50;99.90;;;;;;5216914;28;20211;-70
2021/11/23 07:52:19;;;;;;;13.73;5.70;;;5.50;99.90;;;;;;5249258;28;20323;-71
2021/11/23 07:54:50;;;;;;;15.70;5.70;;;5.60;99.90;;;;;;5216883;28;20208;-71
2021/11/23 07:57:23;;;;;;;15.07;5.27;;;5.60;99.90;;;;;;5250156;28;20244;-70
2021/11/23 07:59:55;;;;;;;10.87;5.10;;;5.70;99.90;;;;;;5250251;28;20236;-74
2021/11/23 08:02:28;;;;;;;11.03;5.10;;;5.80;99.90;;;;;;5250055;28;20664;-72
2021/11/23 08:05:00;;;;;;;15.90;4.90;;;5.80;99.90;;;;;;5249979;28;20239;-73
2021/11/23 08:07:35;;;;;;;10.27;4.67;;;5.80;99.90;;;;;;5249782;28;20221;-73
2021/11/23 08:10:08;;;;;;;8.83;4.13;;;5.90;99.90;;;;;;5250491;28;20220;-71
2021/11/23 08:12:43;;;;;;;6.90;3.47;;;5.90;99.90;;;;;;5251455;28;20566;-73
2021/11/23 08:15:15;;;;;;;6.67;3.17;;;5.90;99.90;;;;;;5254363;28;20199;-72
2021/11/23 08:17:48;;;;;;;7.80;2.80;;;5.80;99.90;;;;;;5253082;28;20201;-70
2021/11/23 08:20:22;;;;;;;4.90;2.47;;;5.80;99.90;;;;;;5251666;28;20373;-74
2021/11/23 08:22:54;;;;;;;5.70;2.73;;;5.90;99.90;;;;;;5250256;28;20210;-72
2021/11/23 08:25:27;;;;;;;5.73;2.80;;;5.90;99.90;;;;;;5249015;28;20601;-71
2021/11/23 08:27:59;;;;;;;10.17;2.70;;;5.90;99.90;;;;;;5248738;28;20201;-72
2021/11/23 08:30:31;;;;;;;5.17;2.17;;;5.90;99.90;;;;;;5231490;28;20209;-73
2021/11/23 08:33:04;;;;;;;4.03;2.20;;;5.90;99.90;;;;;;5248581;28;20224;-71
2021/11/23 08:35:36;;;;;;;5.43;1.97;;;5.90;99.90;;;;;;5249634;28;20243;-72
2021/11/23 08:38:08;;;;;;;6.73;2.43;;;5.90;99.90;;;;;;5249576;28;20616;-71
2021/11/23 08:40:40;;;;;;;7.97;2.40;;;5.90;99.90;;;;;;5249582;28;20217;-72
2021/11/23 08:43:15;;;;;;;8.57;2.30;;;5.90;99.90;;;;;;5249543;28;20224;-71
2021/11/23 08:45:49;;;;;;;11.27;2.83;;;5.90;99.90;;;;;;5249870;28;20628;-75
2021/11/23 08:48:22;;;;;;;6.77;3.13;;;5.90;99.90;;;;;;5252343;28;20204;-72
2021/11/23 08:50:56;;;;;;;8.73;2.87;;;5.90;99.90;;;;;;5251823;28;20265;-76
2021/11/23 08:53:28;;;;;;;8.33;3.50;;;6.00;99.90;;;;;;5249678;28;20633;-69
2021/11/23 08:56:00;;;;;;;7.30;3.03;;;5.90;99.90;;;;;;5249399;28;20228;-69
2021/11/23 08:58:32;;;;;;;6.93;3.10;;;5.90;99.90;;;;;;5249863;28;20205;-72
2021/11/23 09:01:04;;;;;;;7.13;2.47;;;5.90;99.90;;;;;;5249343;28;20221;-72
2021/11/23 09:03:41;;;;;;;9.07;2.60;;;5.90;99.90;;;;;;5248980;28;20228;-74
2021/11/23 09:06:15;;;;;;;6.17;2.20;;;5.90;99.90;;;;;;5249542;28;20615;-71
2021/11/23 09:08:54;;;;;;;6.87;2.77;;;5.90;99.90;;;;;;5249435;28;20211;-73
2021/11/23 09:11:26;;;;;;;5.20;2.83;;;5.90;99.90;;;;;;5249238;28;20234;-74
2021/11/23 09:13:58;;;;;;;8.77;2.83;;;6.00;99.90;;;;;;5249706;28;20507;-74
2021/11/23 09:16:35;;;;;;;7.50;3.00;;;6.00;99.90;;;;;;5248941;28;20228;-73
2021/11/23 09:19:07;;;;;;;6.30;2.90;;;5.90;99.90;;;;;;5249474;28;20188;-71
2021/11/23 09:21:42;;;;;;;7.90;3.13;;;5.90;99.90;;;;;;5249274;28;20576;-73
2021/11/23 09:24:19;;;;;;;8.77;2.80;;;5.90;99.90;;;;;;5252140;28;20204;-68
2021/11/23 09:26:54;;;;;;;7.57;2.53;;;5.90;99.90;;;;;;5249957;28;20228;-71
2021/11/23 09:29:26;;;;;;;7.30;3.27;;;5.90;99.90;;;;;;5249263;28;20215;-72
2021/11/23 09:31:58;;;;;;;6.67;2.87;;;6.00;99.90;;;;;;5249171;28;20236;-72
2021/11/23 09:34:33;;;;;;;7.80;3.03;;;6.10;99.90;;;;;;5249056;28;20200;-72
2021/11/23 09:37:05;;;;;;;8.20;3.23;;;6.30;99.90;;;;;;5250182;28;20243;-72
2021/11/23 09:39:39;;;;;;;6.80;2.30;;;6.40;99.90;;;;;;5251678;28;20189;-70
2021/11/23 09:42:14;;;;;;;7.20;2.67;;;6.50;99.90;;;;;;5252982;28;20225;-74
2021/11/23 09:44:46;;;;;;;5.33;2.37;;;6.50;99.90;;;;;;5252885;28;20204;-78
2021/11/23 09:47:21;;;;;;;4.90;2.00;;;6.60;99.90;;;;;;5253045;28;20225;-75
2021/11/23 09:49:55;;;;;;;8.37;1.97;;;6.50;99.90;;;;;;5253355;28;20298;-72
2021/11/23 09:52:27;;;;;;;7.73;2.67;;;6.50;99.90;;;;;;5254248;28;20630;-71
2021/11/23 09:54:59;;;;;;;7.43;2.53;;;6.50;99.90;;;;;;5255670;28;20291;-70
2021/11/23 09:57:31;;;;;;;6.33;2.50;;;6.50;99.90;;;;;;5253606;28;20240;-74
2021/11/23 10:00:26;;;;;;;6.20;2.30;;;6.60;99.90;;;;;;5252143;28;20232;-71
2021/11/23 10:03:09;;;;;;;6.07;2.13;;;6.70;99.90;;;;;;5245300;28;20257;-73
2021/11/23 10:05:42;;;;;;;10.93;2.33;;;6.60;99.90;;;;;;5252858;28;20199;-69
2021/11/23 10:08:19;;;;;;;9.77;2.70;;;6.70;99.90;;;;;;5250970;28;20213;-76
2021/11/23 10:10:53;;;;;;;4.13;1.83;;;6.70;99.90;;;;;;5253012;28;20200;-71
2021/11/23 10:13:45;;;;;;;7.87;2.20;;;6.70;99.90;;;;;;5252404;28;20232;-71
2021/11/23 10:16:19;;;;;;;5.17;2.00;;;6.80;99.90;;;;;;5252597;28;20189;-72
2021/11/23 10:19:09;;;;;;;8.07;2.10;;;6.70;99.90;;;;;;5251820;28;20228;-73
2021/11/23 10:21:57;;;;;;;4.63;1.67;;;6.70;99.90;;;;;;5253784;28;20217;-73
2021/11/23 10:24:36;;;;;;;10.50;2.20;;;6.70;99.90;;;;;;5251847;28;20215;-71
2021/11/23 10:27:18;;;;;;;3.77;1.50;;;6.60;99.90;;;;;;5256059;28;20201;-73
2021/11/23 10:29:53;;;;;;;6.00;1.60;;;6.70;99.90;;;;;;5251758;28;20288;-74
2021/11/23 10:32:49;;;;;;;4.50;1.83;;;6.70;99.90;;;;;;5251965;28;20403;-75
2021/11/23 10:35:23;;;;;;;7.80;1.90;;;6.70;99.90;;;;;;5252326;28;20217;-74
2021/11/23 10:37:55;;;;;;;5.73;1.53;;;6.80;99.90;;;;;;5251774;28;20647;-74
2021/11/23 10:40:29;;;;;;;5.23;1.50;;;6.70;99.90;;;;;;5250709;28;20271;-74
2021/11/23 10:43:07;;;;;;;9.13;1.80;;;6.80;99.90;;;;;;5251887;28;20214;-73
2021/11/23 10:45:48;;;;;;;11.37;1.90;;;6.80;99.90;;;;;;5252545;28;20619;-74
2021/11/23 10:48:23;;;;;;;7.47;1.63;;;6.90;99.90;;;;;;5250785;28;20300;-73
2021/11/23 10:51:16;;;;;;;5.80;1.90;;;6.90;99.90;;;;;;5250822;28;20200;-73
2021/11/23 10:53:48;;;;;;;6.03;1.50;;;6.90;99.90;;;;;;5250381;28;20193;-73
2021/11/23 10:56:23;;;;;;;6.80;1.67;;;6.90;99.90;;;;;;5284679;28;20208;-75
2021/11/23 10:58:55;;;;;;;9.50;1.70;;;6.80;99.90;;;;;;5253641;28;20216;-71
2021/11/23 11:01:29;;;;;;;2.23;1.20;;;6.80;99.90;;;;;;5236222;28;20260;-72
2021/11/23 11:04:05;;;;;;;7.27;1.60;;;6.80;99.90;;;;;;5251639;28;20224;-75
2021/11/23 11:06:39;;;;;;;2.87;1.40;;;6.90;99.90;;;;;;5251052;28;20211;-74
2021/11/23 11:09:14;;;;;;;7.30;1.57;;;6.90;99.90;;;;;;5250707;28;20208;-75
2021/11/23 11:11:46;;;;;;;3.53;1.23;;;7.00;99.90;;;;;;5251665;28;20214;-73
2021/11/23 11:14:19;;;;;;;11.53;3.13;;;7.10;99.90;;;;;;5250722;28;20228;-70
2021/11/23 11:16:53;;;;;;;6.47;2.17;;;7.20;99.90;;;;;;5250913;28;20209;-74
2021/11/23 11:19:43;;;;;;;6.57;1.40;;;7.30;99.90;;;;;;5233808;28;20535;-76
2021/11/23 11:22:19;;;;;;;6.03;1.40;;;7.40;99.90;;;;;;5251511;28;20570;-71
2021/11/23 11:25:25;;;;;;;3.77;1.23;;;7.70;99.90;;;;;;5250332;28;20224;-72
2021/11/23 11:27:57;;;;;;;6.83;1.77;;;7.80;99.90;;;;;;5229734;28;20189;-73
2021/11/23 11:30:37;;;;;;;5.40;1.40;;;7.80;99.90;;;;;;5258897;28;20303;-69
2021/11/23 11:33:11;;;;;;;3.20;1.30;;;7.70;99.90;;;;;;5271715;28;20200;-70
2021/11/23 11:35:50;;;;;;;5.03;1.47;;;7.50;99.90;;;;;;5272927;28;20230;-68
2021/11/23 11:38:42;;;;;;;6.23;1.60;;;7.40;99.90;;;;;;5273737;28;20232;-70
2021/11/23 11:41:37;;;;;;;6.53;1.50;;;7.20;99.90;;;;;;5272106;28;20365;-69
2021/11/23 11:44:13;;;;;;;4.63;1.20;;;7.20;99.90;;;;;;5271353;28;20212;-70
2021/11/23 11:46:59;;;;;;;7.33;1.30;;;7.00;99.90;;;;;;5270635;28;20694;-70
2021/11/23 11:50:01;;;;;;;5.03;1.50;;;6.80;99.90;;;;;;5271223;28;20200;-71
2021/11/23 11:53:01;;;;;;;4.63;1.27;;;6.70;99.90;;;;;;5262295;28;20228;-72
2021/11/23 11:55:34;;;;;;;6.80;2.03;;;6.70;99.90;;;;;;5232473;28;20216;-72
2021/11/23 11:58:07;;;;;;;4.50;1.37;;;6.70;99.90;;;;;;5250486;28;20224;-74
2021/11/23 12:00:42;;;;;;;3.93;1.27;;;6.70;99.90;;;;;;5248323;28;20229;-69
2021/11/23 12:03:15;;;;;;;6.53;1.50;;;6.70;99.90;;;;;;5250326;28;20232;-75
2021/11/23 12:05:53;;;;;;;3.73;0.90;;;6.70;99.90;;;;;;5251377;28;20204;-73
2021/11/23 12:08:30;;;;;;;3.67;1.30;;;6.70;99.90;;;;;;5255835;28;20232;-74
2021/11/23 12:11:06;;;;;;;5.13;1.30;;;6.70;99.90;;;;;;5252200;28;20203;-74
2021/11/23 12:14:01;;;;;;;8.37;1.70;;;6.80;99.90;;;;;;5249663;28;20228;-72
2021/11/23 12:16:39;;;;;;;5.70;1.30;;;6.80;99.90;;;;;;5248091;28;20204;-71
2021/11/23 12:20:11;;;;;;;3.30;1.50;;;6.80;99.90;;;;;;5249124;28;20225;-73
2021/11/23 12:22:45;;;;;;;4.37;1.43;;;6.80;99.90;;;;;;5247472;28;20211;-72
2021/11/23 12:25:37;;;;;;;5.60;1.50;;;6.90;99.90;;;;;;5247157;28;20200;-72
2021/11/23 12:28:33;;;;;;;4.20;1.37;;;6.90;99.90;;;;;;5247525;28;20229;-72
2021/11/23 12:31:13;;;;;;;2.93;1.40;;;6.90;99.90;;;;;;5231117;28;20196;-74
2021/11/23 12:33:52;;;;;;;7.83;1.80;;;6.90;99.90;;;;;;5247641;28;20349;-72
2021/11/23 12:36:25;;;;;;;7.10;1.90;;;6.80;99.90;;;;;;5247002;28;20192;-71
2021/11/23 12:39:34;;;;;;;7.60;1.87;;;6.70;99.90;;;;;;5245304;28;20567;-72
2021/11/23 12:42:12;;;;;;;4.20;1.70;;;6.60;99.90;;;;;;5242614;28;20648;-70
2021/11/23 12:44:59;;;;;;;12.27;2.77;;;6.60;99.90;;;;;;5247445;28;20232;-72
2021/11/23 12:47:31;;;;;;;7.10;2.53;;;6.50;99.90;;;;;;5246894;28;20629;-74
2021/11/23 12:50:04;;;;;;;5.47;2.40;;;6.40;99.90;;;;;;5247710;28;20217;-74
2021/11/23 12:52:36;;;;;;;7.70;2.40;;;6.30;99.90;;;;;;5246240;28;21414;-72
2021/11/23 12:55:08;;;;;;;7.57;1.90;;;6.20;99.90;;;;;;5244873;28;20201;-71
2021/11/23 12:57:50;;;;;;;6.70;1.97;;;6.10;99.90;;;;;;5248205;28;20283;-73
2021/11/23 13:00:22;;;;;;;6.03;2.47;;;6.00;99.90;;;;;;5244502;28;20228;-69
2021/11/23 13:02:58;;;;;;;10.47;2.53;;;6.00;99.90;;;;;;5248416;28;20200;-70
2021/11/23 13:05:35;;;;;;;7.73;2.67;;;5.90;99.90;;;;;;5248099;28;20320;-71
2021/11/23 13:08:16;;;;;;;12.30;3.30;;;5.80;99.90;;;;;;5247199;28;20196;-70
2021/11/23 13:10:50;;;;;;;6.23;2.57;;;5.80;99.90;;;;;;5231912;28;20227;-70
2021/11/23 13:13:28;;;;;;;8.87;2.40;;;5.70;99.90;;;;;;5253379;28;20243;-74
2021/11/23 13:16:01;;;;;;;9.77;2.73;;;5.70;99.90;;;;;;5251538;28;20224;-70
2021/11/23 13:18:35;;;;;;;8.33;3.17;;;5.60;99.90;;;;;;5254813;28;20204;-71
2021/11/23 13:21:08;;;;;;;7.57;3.10;;;5.60;99.90;;;;;;5254245;28;20220;-72
2021/11/23 13:23:50;;;;;;;12.23;3.27;;;5.50;99.90;;;;;;5252073;28;20193;-70
2021/11/23 13:26:42;;;;;;;9.20;3.27;;;5.50;99.90;;;;;;5253818;28;20219;-70
2021/11/23 13:29:16;;;;;;;11.23;3.80;;;5.40;99.90;;;;;;5251212;28;20203;-71
2021/11/23 13:31:47;;;;;;;9.93;3.67;;;5.40;99.90;;;;;;5252404;28;20224;-71
2021/11/23 13:34:20;;;;;;;9.27;3.40;;;5.30;99.90;;;;;;5254390;28;20201;-71
2021/11/23 13:36:55;;;;;;;8.17;3.67;;;5.30;99.90;;;;;;5255433;28;20232;-71